Startpagina
METAR-TAF:

METAR-TAF

Vliegvelden :

Libreville, Gabon

Luchthaven Libreville Internationaal

breedte: 00-27N, lengte: 009-25E, hoogte: 12 m

Actueel weer

Dit bericht is 45 minuten geleden gemaakt, om 04:30 UTC
Wind 6 kt uit het noordoosten
Temperatuur 24°C
Vochtigheid 94%
Druk 1010 hPa
Zicht: 8000 m
Weinig wolken op 800 ft

METAR: FOOL 180430Z 04006KT 8000 FEW008 24/23 Q1010 NOSIG

Tijdstip: 06:15 (05:15 UTC)

Verwachting

Dit bericht is 6 uur en het 15 minuten geleden gemaakt, om 23:00 UTC
Verwachting geldig van 18 om 00 UTC tot 19 om 06 UTC
Wind 8 kt uit het zuiden
Zicht: 8000 m
Verspreide wolken op 1000 ft
Gebroken wolken op 3000 ft
Kans 30% :
Tijdelijke
van 18 om 04 UTC tot 18 om 09 UTC
Zicht: 3000 m
Gebroken wolken op 600 ft
Weinig wolken op 1600 ft, Cumulonimbus.
Geheel bewolkt op 2600 ft
onweer, regen

TAF: FOOL 172300Z 1800/1906 17008KT 8000 SCT010 BKN030 PROB30 TEMPO 1804/1809 3000 TSRA BKN006 FEW016CB OVC026

Waarnemingen en weersverwachtingen van meer dan 4000 vliegvelden (METAR en TAF).

De beschikbare stations zijn de gele en rode punten op de kaart.

Ga met uw muis naar het station om de naam te zien.

Klik dan om waarnemingen en weersverwachtingen te zien.

kaart wijzigen: klik op de groene knoppen met een zwart kruis om in te zoomen, op de groene knop met een streepje om uit te zoomen of op de groene pijlen voor aangrenzende kaarten.


METAR-TAF: